Thunder radar more information blitzortung!


Rain radar more information rain snow radar


Equipment we use:

Davis VP2

Weather Display

BareMetal


Nearby METAR Reports

   
CYAZ - Tofino, BC
Updated: 04-20-2019 06:00
Few Clouds  
Few Clouds  
   Wind: NNE 9.3 km/h
Wind: NNE 9.3 km/h
Temperature: 5°C
Wind Chill: 3°C
Dew Point: 4°C
Humidity: 93%
Barometer: 1016.6 hPa
Clouds: Few Clouds
Visibility: 24 km
Cloud details: Few Clouds 152.4 m
CYAZ 201300Z 02005KT 15SM FEW005 05/04 A3002 RMK SC1 SC TR LO CLD OFSHR SLP168
CYHE - Hope,BC
Updated: 04-20-2019 06:00
Mostly Cloudy  
Mostly Cloudy  
   Wind: ESE 13 km/h
Wind: ESE 13 km/h
Temperature: 8°C
Wind Chill: 6°C
Dew Point: 7°C
Humidity: 93%
Barometer: 1017.3 hPa
Clouds: Mostly Cloudy
Visibility: 15 km
Cloud details: Partly Cloudy 1066.8 m,
Mostly Cloudy 1371.6 m,
Mostly Cloudy 3352.8 m
CYHE 201300Z AUTO 11007KT 9SM SCT035 BKN045 BKN110 08/07 A3004 RMK SLP173
CYYT - St. John's, NL
Updated: 04-20-2019 06:00
Light Showers, Rain, Overcast  
Light Showers, Rain, Overcast  
   Wind: West 11.1 km/h
Wind: West 11.1 km/h
Temperature: 5°C
Wind Chill: 2°C
Dew Point: 5°C
Humidity: 100%
Barometer: 1017.9 hPa
Clouds: Overcast
Visibility: 24 km
Cloud details: Mostly Cloudy 91.4 m,
Overcast 823 m
CYYT 201300Z 27006KT 15SM -SHRA BKN003 OVC027 05/05 A3006 RMK ST5SC3 CVCTV CLD EMBD SLP186

Script developed by  Saratoga-weather.org Adapted for the template by  Weerstation Leuven